Skip Navigation LinksHome page > Weather > Current weather Skip Navigation Links

Current Weather

Heathrow, London

For information only: do not use for flight planning or navigation.
Latest weather
Observation time Wednesday, January 28, 2015 6:20 AM GMT
Local time Wednesday, January 28, 2015 6:29 AM GMT
Flight conditions Visual Meteorological Conditions
Winds
Wind direction South-Southwest (210°)
Wind speed 16 mph
Visibility 6.2 mi.
Sky condition
Ceiling unlimited
Cloud layer scattered clouds 1,100 ft.
Temperature 46°F
Dewpoint 43°F
Altimeter 29.77 in.Hg
Derived measurements
Relative humidity 87%
Wind chill 40°F
Density altitude -526 ft.
METAR EGLL 280620Z 21014KT 9999 SCT011 08/06 Q1008

Settings

Location code

InnerDrive.Weather 4.0.5505.0 Release CLR 4.0.30319.34014
Copyright ©2015 Inner Drive Technology. All rights reserved. Portions Copyright ©1986-2015 David Braverman.

Find weather

Site navigation


Skip Navigation Links

Place info

Page info

PayPal - The safer, easier way to pay online!

Return home.

Copyright ©2015 Inner Drive Technology. Purveyors of fine, hand-crafted computer software. Page printed 2015-01-28T06:29:52 UTC.